Time;durP1;ratioP1;P1;durP2;ratioP2;P2;SDS_P1;SDS_P2;PMS_P1;PMS_P2;Temp;Humidity;BMP_temperature;BMP_pressure;BME280_temperature;BME280_humidity;BME280_pressure;Samples;Min_cycle;Max_cycle;Signal;HPM_P1;HPM_P2
2023/09/25 00:01:58;;;;;;;;;;;13.40;99.90;;;;;;5117954;28;19923;-41
2023/09/25 00:04:25;;;;;;;;;;;13.40;99.90;;;;;;5117866;28;19923;-41
2023/09/25 00:06:51;;;;;;;;;;;13.40;99.90;;;;;;5116497;28;20006;-41
2023/09/25 00:09:16;;;;;;;;;;;13.40;99.90;;;;;;5117581;28;20027;-41
2023/09/25 00:11:42;;;;;;;;;;;13.40;99.90;;;;;;5116594;28;19931;-40
2023/09/25 00:14:08;;;;;;;;;;;13.40;99.90;;;;;;5117631;28;19923;-41
2023/09/25 00:16:34;;;;;;;;;;;13.40;99.90;;;;;;5117824;28;19923;-41
2023/09/25 00:19:00;;;;;;;;;;;13.50;99.90;;;;;;5117466;28;19978;-40
2023/09/25 00:21:25;;;;;;;;;;;13.50;99.90;;;;;;5117413;28;19994;-41
2023/09/25 00:23:51;;;;;;;;;;;13.50;99.90;;;;;;5117368;28;20286;-41
2023/09/25 00:26:16;;;;;;;;;;;13.50;99.90;;;;;;5117247;28;20328;-41
2023/09/25 00:28:42;;;;;;;;;;;13.50;99.90;;;;;;5116415;28;20407;-41
2023/09/25 00:31:09;;;;;;;;;;;13.50;99.90;;;;;;5117288;28;19924;-42
2023/09/25 00:33:34;;;;;;;;;;;13.50;99.90;;;;;;5117354;28;19947;-41
2023/09/25 00:36:00;;;;;;;;;;;13.50;99.90;;;;;;5117393;28;20302;-40
2023/09/25 00:38:26;;;;;;;;;;;13.50;99.90;;;;;;5117162;28;20026;-41
2023/09/25 00:40:52;;;;;;;;;;;13.50;99.90;;;;;;5117144;28;19934;-41
2023/09/25 00:43:18;;;;;;;;;;;13.50;99.90;;;;;;5117113;28;19963;-41
2023/09/25 00:45:47;;;;;;;;;;;13.50;99.90;;;;;;5117490;28;20373;-41
2023/09/25 00:48:20;;;;;;;;;;;13.50;99.90;;;;;;5116779;28;19923;-41
2023/09/25 00:50:45;;;;;;;;;;;13.50;99.90;;;;;;5117404;28;20382;-41
2023/09/25 00:53:11;;;;;;;;;;;13.50;99.90;;;;;;5116768;28;19936;-41
2023/09/25 00:55:37;;;;;;;;;;;13.50;99.90;;;;;;5116886;27;20018;-40
2023/09/25 00:58:04;;;;;;;;;;;13.50;99.90;;;;;;5115703;28;19923;-41
2023/09/25 01:00:30;;;;;;;;;;;13.50;99.90;;;;;;5116592;27;19923;-41
2023/09/25 01:02:55;;;;;;;;;;;13.50;99.90;;;;;;5116806;28;19974;-41
2023/09/25 01:05:21;;;;;;;;;;;13.40;99.90;;;;;;5116708;28;20039;-42
2023/09/25 01:07:46;;;;;;;;;;;13.40;99.90;;;;;;5116449;28;19927;-40
2023/09/25 01:10:14;;;;;;;;;;;13.40;99.90;;;;;;5116560;28;19924;-40
2023/09/25 01:12:43;;;;;;;;;;;13.40;99.90;;;;;;5115780;28;19936;-41
2023/09/25 01:15:09;;;;;;;;;;;13.40;99.90;;;;;;5115920;28;20010;-40
2023/09/25 01:17:35;;;;;;;;;;;13.30;99.90;;;;;;5116630;28;20065;-41
2023/09/25 01:20:02;;;;;;;;;;;13.30;99.90;;;;;;5116458;28;20362;-41
2023/09/25 01:22:27;;;;;;;;;;;13.30;99.90;;;;;;5116475;28;20385;-41
2023/09/25 01:24:53;;;;;;;;;;;13.30;99.90;;;;;;5116368;28;19924;-41
2023/09/25 01:27:19;;;;;;;;;;;13.20;99.90;;;;;;5116233;28;19924;-41
2023/09/25 01:29:44;;;;;;;;;;;13.20;99.90;;;;;;5116232;28;20321;-41
2023/09/25 01:32:11;;;;;;;;;;;13.20;99.90;;;;;;5116073;28;19948;-41
2023/09/25 01:34:37;;;;;;;;;;;13.20;99.90;;;;;;5115917;28;19931;-41
2023/09/25 01:37:04;;;;;;;;;;;13.20;99.90;;;;;;5116174;28;19927;-41
2023/09/25 01:39:31;;;;;;;;;;;13.20;99.90;;;;;;5115829;28;19924;-41
2023/09/25 01:41:56;;;;;;;;;;;13.20;99.90;;;;;;5116037;28;19930;-41
2023/09/25 01:44:23;;;;;;;;;;;13.20;99.90;;;;;;5115910;28;19924;-40
2023/09/25 01:46:49;;;;;;;;;;;13.20;99.90;;;;;;5115862;27;19931;-41
2023/09/25 01:49:15;;;;;;;;;;;13.20;99.90;;;;;;5115395;28;19923;-41
2023/09/25 01:51:43;;;;;;;;;;;13.20;99.90;;;;;;5115594;28;19968;-41
2023/09/25 01:54:08;;;;;;;;;;;13.20;99.90;;;;;;5115758;28;19924;-41
2023/09/25 01:56:34;;;;;;;;;;;13.10;99.90;;;;;;5116018;28;20276;-41
2023/09/25 01:58:59;;;;;;;;;;;13.10;99.90;;;;;;5114741;28;19923;-41
2023/09/25 02:01:25;;;;;;;;;;;13.10;99.90;;;;;;5115483;28;19976;-40
2023/09/25 02:03:51;;;;;;;;;;;13.10;99.90;;;;;;5114173;28;19931;-41
2023/09/25 02:06:16;;;;;;;;;;;13.00;99.90;;;;;;5115280;28;19928;-40
2023/09/25 02:08:42;;;;;;;;;;;13.00;99.90;;;;;;5115390;28;19923;-41
2023/09/25 02:11:07;;;;;;;;;;;13.00;99.90;;;;;;5115432;28;19923;-40
2023/09/25 02:13:33;;;;;;;;;;;13.00;99.90;;;;;;5115429;28;19986;-41
2023/09/25 02:15:58;;;;;;;;;;;12.90;99.90;;;;;;5115186;28;19930;-42
2023/09/25 02:18:24;;;;;;;;;;;12.90;99.90;;;;;;5114951;28;19927;-41
2023/09/25 02:20:50;;;;;;;;;;;12.90;99.90;;;;;;5114717;28;19971;-41
2023/09/25 02:23:15;;;;;;;;;;;12.90;99.90;;;;;;5115083;28;19928;-41
2023/09/25 02:25:41;;;;;;;;;;;12.90;99.90;;;;;;5115228;28;19928;-41
2023/09/25 02:28:06;;;;;;;;;;;12.90;99.90;;;;;;5114915;28;20023;-40
2023/09/25 02:30:32;;;;;;;;;;;12.90;99.90;;;;;;5115102;28;19924;-41
2023/09/25 02:32:59;;;;;;;;;;;12.90;99.90;;;;;;5114917;28;19923;-41
2023/09/25 02:35:25;;;;;;;;;;;12.90;99.90;;;;;;5114837;28;19924;-41
2023/09/25 02:37:50;;;;;;;;;;;12.90;99.90;;;;;;5114998;28;20431;-41
2023/09/25 02:40:16;;;;;;;;;;;12.90;99.90;;;;;;5115159;28;19928;-40
2023/09/25 02:42:42;;;;;;;;;;;12.90;99.90;;;;;;5114781;28;19931;-40
2023/09/25 02:45:08;;;;;;;;;;;12.90;99.90;;;;;;5114838;28;19927;-41
2023/09/25 02:47:33;;;;;;;;;;;12.90;99.90;;;;;;5114472;28;20397;-40
2023/09/25 02:50:00;;;;;;;;;;;12.90;99.90;;;;;;5114113;28;19924;-41
2023/09/25 02:52:25;;;;;;;;;;;12.90;99.90;;;;;;5114743;28;19931;-41
2023/09/25 02:54:51;;;;;;;;;;;12.90;99.90;;;;;;5114714;28;19928;-41
2023/09/25 02:57:17;;;;;;;;;;;12.90;99.90;;;;;;5114738;28;20282;-41
2023/09/25 02:59:42;;;;;;;;;;;12.90;99.90;;;;;;5113606;28;19927;-41
2023/09/25 03:02:08;;;;;;;;;;;12.90;99.90;;;;;;5114478;28;19923;-41
2023/09/25 03:04:33;;;;;;;;;;;12.90;99.90;;;;;;5114594;28;19931;-40
2023/09/25 03:06:59;;;;;;;;;;;12.90;99.90;;;;;;5114612;28;19923;-40
2023/09/25 03:09:24;;;;;;;;;;;12.80;99.90;;;;;;5114512;28;19924;-41
2023/09/25 03:11:50;;;;;;;;;;;12.80;99.90;;;;;;5114445;28;19977;-40
2023/09/25 03:14:16;;;;;;;;;;;12.80;99.90;;;;;;5114284;28;19935;-40
2023/09/25 03:16:42;;;;;;;;;;;12.80;99.90;;;;;;5114353;28;19924;-40
2023/09/25 03:19:07;;;;;;;;;;;12.80;99.90;;;;;;5114454;28;19923;-41
2023/09/25 03:21:33;;;;;;;;;;;12.80;99.90;;;;;;5114542;28;19924;-41
2023/09/25 03:23:59;;;;;;;;;;;12.80;99.90;;;;;;5114819;28;20281;-40
2023/09/25 03:26:24;;;;;;;;;;;12.80;99.90;;;;;;5114429;28;20365;-41
2023/09/25 03:28:50;;;;;;;;;;;12.70;99.90;;;;;;5114319;28;20019;-40
2023/09/25 03:31:15;;;;;;;;;;;12.70;99.90;;;;;;5114145;28;20001;-40
2023/09/25 03:33:41;;;;;;;;;;;12.70;99.90;;;;;;5114308;28;19927;-41
2023/09/25 03:36:07;;;;;;;;;;;12.70;99.90;;;;;;5114424;28;19996;-41
2023/09/25 03:38:33;;;;;;;;;;;12.70;99.90;;;;;;5114329;28;19924;-40
2023/09/25 03:40:59;;;;;;;;;;;12.70;99.90;;;;;;5113166;28;19931;-41
2023/09/25 03:43:25;;;;;;;;;;;12.70;99.90;;;;;;5114295;28;19931;-41
2023/09/25 03:45:51;;;;;;;;;;;12.60;99.90;;;;;;5114251;28;19927;-41
2023/09/25 03:48:16;;;;;;;;;;;12.60;99.90;;;;;;5113818;28;20378;-41
2023/09/25 03:50:42;;;;;;;;;;;12.60;99.90;;;;;;5114030;28;19927;-40
2023/09/25 03:53:07;;;;;;;;;;;12.60;99.90;;;;;;5114217;28;20370;-40
2023/09/25 03:55:33;;;;;;;;;;;12.60;99.90;;;;;;5114177;28;20042;-40
2023/09/25 03:57:58;;;;;;;;;;;12.60;99.90;;;;;;5114118;28;20263;-40
2023/09/25 04:00:24;;;;;;;;;;;12.60;99.90;;;;;;5114265;28;19923;-41
2023/09/25 04:02:50;;;;;;;;;;;12.60;99.90;;;;;;5117035;28;19924;-41
2023/09/25 04:05:16;;;;;;;;;;;12.60;99.90;;;;;;5117937;28;20297;-41
2023/09/25 04:07:42;;;;;;;;;;;12.60;99.90;;;;;;5117804;28;20018;-40
2023/09/25 04:10:07;;;;;;;;;;;12.60;99.90;;;;;;5116955;28;19924;-40
2023/09/25 04:12:34;;;;;;;;;;;12.60;99.90;;;;;;5117800;28;20370;-40
2023/09/25 04:15:00;;;;;;;;;;;12.60;99.90;;;;;;5117538;28;19931;-40
2023/09/25 04:17:26;;;;;;;;;;;12.60;99.90;;;;;;5116723;28;19923;-41
2023/09/25 04:19:52;;;;;;;;;;;12.60;99.90;;;;;;5117656;28;19934;-40
2023/09/25 04:22:19;;;;;;;;;;;12.70;99.90;;;;;;5117515;28;19923;-40
2023/09/25 04:24:44;;;;;;;;;;;12.60;99.90;;;;;;5117817;28;20012;-41
2023/09/25 04:27:10;;;;;;;;;;;12.60;99.90;;;;;;5117508;28;20293;-40
2023/09/25 04:29:38;;;;;;;;;;;12.60;99.90;;;;;;5117275;28;19931;-40
2023/09/25 04:32:03;;;;;;;;;;;12.60;99.90;;;;;;5117436;28;19924;-41
2023/09/25 04:34:29;;;;;;;;;;;12.60;99.90;;;;;;5117048;28;19984;-40
2023/09/25 04:36:55;;;;;;;;;;;12.60;99.90;;;;;;5117242;27;19931;-40
2023/09/25 04:39:20;;;;;;;;;;;12.60;99.90;;;;;;5117218;28;19930;-40
2023/09/25 04:41:47;;;;;;;;;;;12.60;99.90;;;;;;5117122;28;19974;-41
2023/09/25 04:44:12;;;;;;;;;;;12.60;99.90;;;;;;5117095;28;19923;-42
2023/09/25 04:46:38;;;;;;;;;;;12.60;99.90;;;;;;5116906;28;19924;-41
2023/09/25 04:49:07;;;;;;;;;;;12.60;99.90;;;;;;5116835;28;19927;-41
2023/09/25 04:51:33;;;;;;;;;;;12.50;99.90;;;;;;5117309;28;19948;-40
2023/09/25 04:54:00;;;;;;;;;;;12.60;99.90;;;;;;5132860;27;19927;-41
2023/09/25 04:56:27;;;;;;;;;;;12.60;99.90;;;;;;5115665;28;19923;-40
2023/09/25 04:58:53;;;;;;;;;;;12.60;99.90;;;;;;5116876;28;20049;-40
2023/09/25 05:01:19;;;;;;;;;;;12.60;99.90;;;;;;5115655;28;20359;-40
2023/09/25 05:03:45;;;;;;;;;;;12.60;99.90;;;;;;5115858;28;19930;-40
2023/09/25 05:06:11;;;;;;;;;;;12.60;99.90;;;;;;5116756;28;19963;-40
2023/09/25 05:08:38;;;;;;;;;;;12.60;99.90;;;;;;5116937;28;19970;-40
2023/09/25 05:11:05;;;;;;;;;;;12.60;99.90;;;;;;5116674;28;20023;-41
2023/09/25 05:13:31;;;;;;;;;;;12.50;99.90;;;;;;5114996;28;19924;-40
2023/09/25 05:15:57;;;;;;;;;;;12.60;99.90;;;;;;5132399;27;20373;-40
2023/09/25 05:18:22;;;;;;;;;;;12.60;99.90;;;;;;5117104;28;19963;-40
2023/09/25 05:20:48;;;;;;;;;;;12.60;99.90;;;;;;5116577;28;20447;-40
2023/09/25 05:23:13;;;;;;;;;;;12.70;99.90;;;;;;5116443;28;19924;-40
2023/09/25 05:25:39;;;;;;;;;;;12.70;99.90;;;;;;5116307;28;19946;-40
2023/09/25 05:28:05;;;;;;;;;;;12.70;99.90;;;;;;5115966;28;19924;-40
2023/09/25 05:30:30;;;;;;;;;;;12.70;99.90;;;;;;5116165;28;19946;-40
2023/09/25 05:32:56;;;;;;;;;;;12.70;99.90;;;;;;5116484;28;19924;-40
2023/09/25 05:35:22;;;;;;;;;;;12.70;99.90;;;;;;5116182;28;19924;-40
2023/09/25 05:37:48;;;;;;;;;;;12.70;99.90;;;;;;5115110;28;20351;-40
2023/09/25 05:40:14;;;;;;;;;;;12.70;99.90;;;;;;5116051;28;19984;-40
2023/09/25 05:42:42;;;;;;;;;;;12.70;99.90;;;;;;5115994;27;20247;-40
2023/09/25 05:45:08;;;;;;;;;;;12.70;99.90;;;;;;5115940;28;20410;-40
2023/09/25 05:47:34;;;;;;;;;;;12.70;99.90;;;;;;5115818;28;19928;-40
2023/09/25 05:50:00;;;;;;;;;;;12.70;99.90;;;;;;5115773;28;19924;-40
2023/09/25 05:52:26;;;;;;;;;;;12.70;99.90;;;;;;5115808;28;19947;-40
2023/09/25 05:54:51;;;;;;;;;;;12.70;99.90;;;;;;5115809;28;19927;-40
2023/09/25 05:57:17;;;;;;;;;;;12.70;99.90;;;;;;5114681;28;19931;-40
2023/09/25 05:59:43;;;;;;;;;;;12.70;99.90;;;;;;5115481;28;19969;-40
2023/09/25 06:02:08;;;;;;;;;;;12.70;99.90;;;;;;5115562;28;19983;-40
2023/09/25 06:04:35;;;;;;;;;;;12.70;99.90;;;;;;5115602;28;20059;-42
2023/09/25 06:07:01;;;;;;;;;;;12.70;99.90;;;;;;5115465;28;19924;-40
2023/09/25 06:09:26;;;;;;;;;;;12.70;99.90;;;;;;5115213;28;19931;-40
2023/09/25 06:11:52;;;;;;;;;;;12.70;99.90;;;;;;5115452;28;19924;-40
2023/09/25 06:14:18;;;;;;;;;;;12.70;99.90;;;;;;5115235;28;19928;-40
2023/09/25 06:16:44;;;;;;;;;;;12.70;99.90;;;;;;5115385;28;19931;-40
2023/09/25 06:19:09;;;;;;;;;;;12.70;99.90;;;;;;5115634;28;19924;-40
2023/09/25 06:21:35;;;;;;;;;;;12.80;99.90;;;;;;5115167;28;19923;-40
2023/09/25 06:24:01;;;;;;;;;;;12.80;99.90;;;;;;5114882;28;19927;-40
2023/09/25 06:26:27;;;;;;;;;;;12.80;99.90;;;;;;5114213;28;19923;-40
2023/09/25 06:28:54;;;;;;;;;;;12.80;99.90;;;;;;5131013;27;19924;-40
2023/09/25 06:31:20;;;;;;;;;;;12.80;99.90;;;;;;5115288;28;19923;-40
2023/09/25 06:33:46;;;;;;;;;;;12.90;99.90;;;;;;5115066;28;19994;-40
2023/09/25 06:36:11;;;;;;;;;;;12.90;99.90;;;;;;5114988;28;20374;-41
2023/09/25 06:38:37;;;;;;;;;;;12.90;99.90;;;;;;5114966;28;19946;-40
2023/09/25 06:41:03;;;;;;;;;;;12.90;99.90;;;;;;5114719;28;20370;-40
2023/09/25 06:43:28;;;;;;;;;;;12.90;99.90;;;;;;5114775;28;19930;-41
2023/09/25 06:45:54;;;;;;;;;;;13.00;99.90;;;;;;5114942;28;20342;-40
2023/09/25 06:48:19;;;;;;;;;;;12.90;99.90;;;;;;5114692;28;20274;-40
2023/09/25 06:50:45;;;;;;;;;;;13.00;99.90;;;;;;5114420;28;20015;-40
2023/09/25 06:53:10;;;;;;;;;;;13.00;99.90;;;;;;5114587;28;19923;-41
2023/09/25 06:55:38;;;;;;;;;;;13.00;99.90;;;;;;5114519;28;19990;-40
2023/09/25 06:58:04;;;;;;;;;;;13.10;99.90;;;;;;5114586;28;19968;-41
2023/09/25 07:00:30;;;;;;;;;;;13.10;99.90;;;;;;5113552;28;20022;-40
2023/09/25 07:02:56;;;;;;;;;;;13.10;99.90;;;;;;5114560;28;19923;-40
2023/09/25 07:05:22;;;;;;;;;;;13.10;99.90;;;;;;5114580;28;20027;-40
2023/09/25 07:07:47;;;;;;;;;;;13.10;99.90;;;;;;5114512;28;20066;-40
2023/09/25 07:10:13;;;;;;;;;;;13.20;99.90;;;;;;5114573;28;19924;-40
2023/09/25 07:12:39;;;;;;;;;;;13.20;99.90;;;;;;5114527;28;19967;-41
2023/09/25 07:15:05;;;;;;;;;;;13.20;99.90;;;;;;5114281;28;19924;-40
2023/09/25 07:17:30;;;;;;;;;;;13.20;99.90;;;;;;5114318;28;20348;-41
2023/09/25 07:19:56;;;;;;;;;;;13.20;99.90;;;;;;5114314;28;19924;-40
2023/09/25 07:22:22;;;;;;;;;;;13.20;99.90;;;;;;5114485;28;19935;-40
2023/09/25 07:24:48;;;;;;;;;;;13.30;99.90;;;;;;5114375;28;19924;-40
2023/09/25 07:27:14;;;;;;;;;;;13.20;99.90;;;;;;5114247;28;20367;-40
2023/09/25 07:29:43;;;;;;;;;;;13.30;99.90;;;;;;5114309;28;19928;-41
2023/09/25 07:32:09;;;;;;;;;;;13.30;99.90;;;;;;5114457;28;19924;-40
2023/09/25 07:34:34;;;;;;;;;;;13.30;99.90;;;;;;5130467;28;20422;-40
2023/09/25 07:37:00;;;;;;;;;;;13.30;99.90;;;;;;5116105;28;19924;-40
2023/09/25 07:39:26;;;;;;;;;;;13.40;99.90;;;;;;5118342;28;19924;-40
2023/09/25 07:41:52;;;;;;;;;;;13.40;99.90;;;;;;5118149;28;20374;-41
2023/09/25 07:44:18;;;;;;;;;;;13.40;99.90;;;;;;5118740;27;20442;-40
2023/09/25 07:46:44;;;;;;;;;;;13.50;99.90;;;;;;5118270;28;20014;-40
2023/09/25 07:49:10;;;;;;;;;;;13.50;99.90;;;;;;5116934;28;19924;-40
2023/09/25 07:51:36;;;;;;;;;;;13.50;99.90;;;;;;5118200;28;20374;-40
2023/09/25 07:54:03;;;;;;;;;;;13.60;99.90;;;;;;5118122;28;19934;-40
2023/09/25 07:56:30;;;;;;;;;;;13.70;99.90;;;;;;5118002;28;19924;-41
2023/09/25 07:58:55;;;;;;;;;;;13.70;99.90;;;;;;5117281;28;19975;-40
2023/09/25 08:01:22;;;;;;;;;;;13.70;99.90;;;;;;5118068;28;20020;-41
2023/09/25 08:03:51;;;;;;;;;;;13.80;99.90;;;;;;5118039;28;19924;-40
2023/09/25 08:06:19;;;;;;;;;;;13.80;99.90;;;;;;5117820;28;20371;-40
2023/09/25 08:08:45;;;;;;;;;;;13.90;99.90;;;;;;5118016;28;19923;-40
2023/09/25 08:11:10;;;;;;;;;;;13.90;99.90;;;;;;5117582;28;20019;-40
2023/09/25 08:13:36;;;;;;;;;;;14.00;99.90;;;;;;5117529;28;20018;-40
2023/09/25 08:16:05;;;;;;;;;;;14.00;99.90;;;;;;5117869;28;20446;-40
2023/09/25 08:18:30;;;;;;;;;;;14.00;99.90;;;;;;5117524;28;20346;-40
2023/09/25 08:20:56;;;;;;;;;;;14.10;99.90;;;;;;5117577;28;19975;-40
2023/09/25 08:23:21;;;;;;;;;;;14.10;99.90;;;;;;5116461;28;19923;-40
2023/09/25 08:25:47;;;;;;;;;;;14.10;99.90;;;;;;5117289;28;19925;-40
2023/09/25 08:28:16;;;;;;;;;;;14.20;99.90;;;;;;5117451;28;19923;-40
2023/09/25 08:30:41;;;;;;;;;;;14.20;99.90;;;;;;5117784;28;19928;-40
2023/09/25 08:33:07;;;;;;;;;;;14.30;99.90;;;;;;5117422;28;20359;-40
2023/09/25 08:35:33;;;;;;;;;;;14.30;99.90;;;;;;5117208;28;19924;-41
2023/09/25 08:37:59;;;;;;;;;;;14.30;99.90;;;;;;5117092;28;20298;-40
2023/09/25 08:40:25;;;;;;;;;;;14.40;99.90;;;;;;5117183;28;19923;-41
2023/09/25 08:42:53;;;;;;;;;;;14.40;99.90;;;;;;5117161;28;19931;-40
2023/09/25 08:45:20;;;;;;;;;;;14.50;99.90;;;;;;5117203;28;20291;-40
2023/09/25 08:47:46;;;;;;;;;;;14.50;99.90;;;;;;5116201;28;20405;-41
2023/09/25 08:50:12;;;;;;;;;;;14.50;99.90;;;;;;5116869;28;19983;-40
2023/09/25 08:52:39;;;;;;;;;;;14.60;99.90;;;;;;5117569;28;19924;-41
2023/09/25 08:55:06;;;;;;;;;;;14.70;99.90;;;;;;5116896;28;19931;-41
2023/09/25 08:57:31;;;;;;;;;;;14.70;99.90;;;;;;5116943;28;19931;-41
2023/09/25 08:59:59;;;;;;;;;;;14.80;99.90;;;;;;5117274;28;19924;-40
2023/09/25 09:02:24;;;;;;;;;;;14.80;99.90;;;;;;5116898;28;19924;-40
2023/09/25 09:04:51;;;;;;;;;;;14.90;99.90;;;;;;5116652;28;20260;-41
2023/09/25 09:07:16;;;;;;;;;;;15.00;99.90;;;;;;5115852;28;20077;-40
2023/09/25 09:09:43;;;;;;;;;;;15.00;99.90;;;;;;5116345;28;20010;-40
2023/09/25 09:12:09;;;;;;;;;;;15.10;99.90;;;;;;5116710;28;20374;-40
2023/09/25 09:14:39;;;;;;;;;;;15.10;99.90;;;;;;5116899;28;19924;-40
2023/09/25 09:17:05;;;;;;;;;;;15.20;99.90;;;;;;5116516;28;19924;-41
2023/09/25 09:19:35;;;;;;;;;;;15.20;99.90;;;;;;5116410;28;19924;-40
2023/09/25 09:22:02;;;;;;;;;;;15.30;99.90;;;;;;5116342;28;19935;-41
2023/09/25 09:24:28;;;;;;;;;;;15.30;99.90;;;;;;5116541;28;19924;-40
2023/09/25 09:26:54;;;;;;;;;;;15.40;99.90;;;;;;5116754;28;19992;-41
2023/09/25 09:29:19;;;;;;;;;;;15.50;99.90;;;;;;5116150;28;19924;-40
2023/09/25 09:31:45;;;;;;;;;;;15.50;99.90;;;;;;5116200;28;20302;-40
2023/09/25 09:34:11;;;;;;;;;;;15.60;99.90;;;;;;5115008;28;20272;-40
2023/09/25 09:36:37;;;;;;;;;;;15.60;99.90;;;;;;5116141;28;19924;-40
2023/09/25 09:39:03;;;;;;;;;;;15.60;99.90;;;;;;5116249;28;19954;-41
2023/09/25 09:41:29;;;;;;;;;;;15.70;99.90;;;;;;5116073;28;19924;-41
2023/09/25 09:43:54;;;;;;;;;;;15.80;99.90;;;;;;5115921;28;19923;-41
2023/09/25 09:46:22;;;;;;;;;;;15.80;99.90;;;;;;5115963;28;19946;-41
2023/09/25 09:48:49;;;;;;;;;;;15.90;99.90;;;;;;5115808;28;20401;-41
2023/09/25 09:51:16;;;;;;;;;;;15.90;99.90;;;;;;5115983;28;19924;-41
2023/09/25 09:53:42;;;;;;;;;;;16.00;99.90;;;;;;5115979;28;19980;-41
2023/09/25 09:56:08;;;;;;;;;;;16.00;99.90;;;;;;5115768;28;19924;-41
2023/09/25 09:58:36;;;;;;;;;;;16.10;99.90;;;;;;5115757;28;19931;-41
2023/09/25 10:01:02;;;;;;;;;;;16.20;99.90;;;;;;5115543;28;19935;-41
2023/09/25 10:03:31;;;;;;;;;;;16.30;99.90;;;;;;5115525;27;20286;-41
2023/09/25 10:05:56;;;;;;;;;;;16.40;99.90;;;;;;5115525;28;19924;-41
2023/09/25 10:08:22;;;;;;;;;;;16.40;99.90;;;;;;5115199;28;20385;-41
2023/09/25 10:10:48;;;;;;;;;;;16.50;99.90;;;;;;5115515;28;20299;-41
2023/09/25 10:13:26;;;;;;;;;;;16.50;99.90;;;;;;5114834;28;19962;-41
2023/09/25 10:15:56;;;;;;;;;;;16.60;99.90;;;;;;5115363;28;19967;-41
2023/09/25 10:18:22;;;;;;;;;;;16.70;99.90;;;;;;5115294;28;20437;-42
2023/09/25 10:20:48;;;;;;;;;;;16.80;99.90;;;;;;5115260;28;20332;-41
2023/09/25 10:23:21;;;;;;;;;;;16.90;99.90;;;;;;5115910;28;19931;-41
2023/09/25 10:25:53;;;;;;;;;;;17.00;99.90;;;;;;5115245;28;19924;-41
2023/09/25 10:28:26;;;;;;;;;;;17.10;99.90;;;;;;5114985;28;19930;-41
2023/09/25 10:30:55;;;;;;;;;;;17.20;99.90;;;;;;5114982;28;19934;-40
2023/09/25 10:33:21;;;;;;;;;;;17.20;99.90;;;;;;5114790;28;20382;-41
2023/09/25 10:35:50;;;;;;;;;;;17.30;99.90;;;;;;5115435;27;19975;-41
2023/09/25 10:38:25;;;;;;;;;;;17.40;99.90;;;;;;5115367;28;20022;-41
2023/09/25 10:40:52;;;;;;;;;;;17.40;99.90;;;;;;5115180;28;19930;-41
2023/09/25 10:43:18;;;;;;;;;;;17.50;99.90;;;;;;5114897;28;20394;-41
2023/09/25 10:45:44;;;;;;;;;;;17.50;99.90;;;;;;5114795;28;19923;-41
2023/09/25 10:48:11;;;;;;;;;;;17.60;99.90;;;;;;5114977;28;19924;-41
2023/09/25 10:50:37;;;;;;;;;;;17.60;99.90;;;;;;5114622;28;19927;-41
2023/09/25 10:53:07;;;;;;;;;;;17.70;99.90;;;;;;5114670;28;19924;-41
2023/09/25 10:55:33;;;;;;;;;;;17.70;99.90;;;;;;5114574;28;19923;-41
2023/09/25 10:58:00;;;;;;;;;;;17.80;99.90;;;;;;5113888;28;19923;-41
2023/09/25 11:00:26;;;;;;;;;;;17.90;99.90;;;;;;5114666;28;19967;-41
2023/09/25 11:02:52;;;;;;;;;;;18.00;99.90;;;;;;5114714;28;19986;-41
2023/09/25 11:05:17;;;;;;;;;;;18.10;99.90;;;;;;5114606;28;20403;-41
2023/09/25 11:07:43;;;;;;;;;;;18.20;99.90;;;;;;5114696;28;19932;-41
2023/09/25 11:10:13;;;;;;;;;;;18.20;99.90;;;;;;5114502;28;20397;-41
2023/09/25 11:12:40;;;;;;;;;;;18.30;99.90;;;;;;5113987;28;19928;-41
2023/09/25 11:15:09;;;;;;;;;;;18.40;99.90;;;;;;5114371;28;20471;-41
2023/09/25 11:17:35;;;;;;;;;;;18.50;99.90;;;;;;5114539;28;19924;-41
2023/09/25 11:20:06;;;;;;;;;;;18.50;99.90;;;;;;5114360;28;20046;-41
2023/09/25 11:22:36;;;;;;;;;;;18.60;99.90;;;;;;5114533;28;19928;-41
2023/09/25 11:25:04;;;;;;;;;;;18.70;99.90;;;;;;5114306;28;20026;-41
2023/09/25 11:27:29;;;;;;;;;;;18.70;99.90;;;;;;5114236;28;20400;-41
2023/09/25 11:29:55;;;;;;;;;;;18.80;99.90;;;;;;5114436;28;20006;-41
2023/09/25 11:32:21;;;;;;;;;;;18.90;99.90;;;;;;5114398;28;19924;-42
2023/09/25 11:34:47;;;;;;;;;;;18.90;99.90;;;;;;5114387;28;19930;-41
2023/09/25 11:37:20;;;;;;;;;;;18.90;99.90;;;;;;5114277;28;19977;-42
2023/09/25 11:39:46;;;;;;;;;;;19.00;99.90;;;;;;5114288;28;20340;-41
2023/09/25 11:42:11;;;;;;;;;;;19.00;99.90;;;;;;5114076;28;20025;-41
2023/09/25 11:44:37;;;;;;;;;;;19.10;99.90;;;;;;5113356;28;19932;-41
2023/09/25 11:47:03;;;;;;;;;;;19.20;99.90;;;;;;5113956;28;19923;-41
2023/09/25 11:49:29;;;;;;;;;;;19.30;99.90;;;;;;5114112;28;19923;-41
2023/09/25 11:51:54;;;;;;;;;;;19.20;99.90;;;;;;5114180;28;19946;-41
2023/09/25 11:54:20;;;;;;;;;;;19.20;99.90;;;;;;5114149;28;19924;-41
2023/09/25 11:56:45;;;;;;;;;;;19.10;99.90;;;;;;5114010;28;20016;-40
2023/09/25 11:59:15;;;;;;;;;;;19.00;99.90;;;;;;5114159;28;19935;-43
2023/09/25 12:01:41;;;;;;;;;;;18.90;99.90;;;;;;5114188;28;20278;-41
2023/09/25 12:04:08;;;;;;;;;;;18.80;99.90;;;;;;5113969;28;19970;-41
2023/09/25 12:06:34;;;;;;;;;;;18.80;99.90;;;;;;5113861;28;20014;-41
2023/09/25 12:09:10;;;;;;;;;;;18.70;99.90;;;;;;5113905;28;20035;-41
2023/09/25 12:11:36;;;;;;;;;;;18.70;99.90;;;;;;5114507;28;19931;-41
2023/09/25 12:14:02;;;;;;;;;;;18.70;99.90;;;;;;5113135;28;20018;-41
2023/09/25 12:16:27;;;;;;;;;;;18.70;99.90;;;;;;5114301;28;19924;-41
2023/09/25 12:18:56;;;;;;;;;;;18.80;99.90;;;;;;5112616;28;20276;-41
2023/09/25 12:21:21;;;;;;;;;;;18.80;99.90;;;;;;5113920;28;19928;-42
2023/09/25 12:23:47;;;;;;;;;;;18.90;99.90;;;;;;5114081;28;19969;-41
2023/09/25 12:26:15;;;;;;;;;;;19.10;99.90;;;;;;5117623;28;19924;-41
2023/09/25 12:28:41;;;;;;;;;;;19.20;99.90;;;;;;5117497;28;19931;-41
2023/09/25 12:31:06;;;;;;;;;;;19.30;99.90;;;;;;5117518;28;20290;-41
2023/09/25 12:33:32;;;;;;;;;;;19.30;99.90;;;;;;5117402;28;19931;-41
2023/09/25 12:35:57;;;;;;;;;;;19.30;99.90;;;;;;5117395;28;19930;-41
2023/09/25 12:38:23;;;;;;;;;;;19.30;99.90;;;;;;5117300;28;19930;-41
2023/09/25 12:40:49;;;;;;;;;;;19.20;99.90;;;;;;5116160;28;19923;-41
2023/09/25 12:43:14;;;;;;;;;;;19.20;99.90;;;;;;5117456;28;19924;-41
2023/09/25 12:45:40;;;;;;;;;;;19.20;99.90;;;;;;5117215;28;19927;-41
2023/09/25 12:48:06;;;;;;;;;;;19.10;99.90;;;;;;5117180;28;19931;-41
2023/09/25 12:50:31;;;;;;;;;;;19.10;99.90;;;;;;5117123;28;19927;-41
2023/09/25 12:52:57;;;;;;;;;;;19.10;99.90;;;;;;5116996;28;19923;-41
2023/09/25 12:55:22;;;;;;;;;;;19.00;99.90;;;;;;5117039;28;20282;-41
2023/09/25 12:57:50;;;;;;;;;;;19.00;99.90;;;;;;5116975;28;20006;-41
2023/09/25 13:00:18;;;;;;;;;;;18.90;99.90;;;;;;5116947;28;19931;-41
2023/09/25 13:02:43;;;;;;;;;;;18.90;99.90;;;;;;5116923;27;19923;-41
2023/09/25 13:05:10;;;;;;;;;;;18.80;99.90;;;;;;5116670;28;19977;-41
2023/09/25 13:07:36;;;;;;;;;;;18.80;99.90;;;;;;5116735;28;19931;-41
2023/09/25 13:10:04;;;;;;;;;;;18.80;99.90;;;;;;5116841;28;19927;-41
2023/09/25 13:12:30;;;;;;;;;;;18.70;99.90;;;;;;5116654;28;19924;-41
2023/09/25 13:14:56;;;;;;;;;;;18.80;99.90;;;;;;5116694;27;19931;-41
2023/09/25 13:17:21;;;;;;;;;;;18.80;99.90;;;;;;5116546;28;20375;-42
2023/09/25 13:19:48;;;;;;;;;;;18.80;99.90;;;;;;5116545;28;20007;-41
2023/09/25 13:22:14;;;;;;;;;;;18.80;99.90;;;;;;5116318;28;19924;-41
2023/09/25 13:24:40;;;;;;;;;;;18.80;99.90;;;;;;5116418;28;19924;-41
2023/09/25 13:27:06;;;;;;;;;;;18.90;99.90;;;;;;5116391;28;20085;-41
2023/09/25 13:29:32;;;;;;;;;;;19.00;99.90;;;;;;5116169;28;19928;-41
2023/09/25 13:31:58;;;;;;;;;;;19.10;99.90;;;;;;5116316;28;19924;-41
2023/09/25 13:34:23;;;;;;;;;;;19.20;99.90;;;;;;5115743;28;19971;-41
2023/09/25 13:36:49;;;;;;;;;;;19.20;99.90;;;;;;5116170;27;19924;-41
2023/09/25 13:39:17;;;;;;;;;;;19.30;99.90;;;;;;5116307;28;20285;-41
2023/09/25 13:41:43;;;;;;;;;;;19.30;99.90;;;;;;5116346;28;19982;-41
2023/09/25 13:44:10;;;;;;;;;;;19.40;99.90;;;;;;5116087;28;19970;-41
2023/09/25 13:46:36;;;;;;;;;;;19.40;99.90;;;;;;5115942;28;19924;-41
2023/09/25 13:49:02;;;;;;;;;;;19.50;99.90;;;;;;5115640;28;20019;-41
2023/09/25 13:51:27;;;;;;;;;;;19.60;99.90;;;;;;5116026;28;19924;-41
2023/09/25 13:53:53;;;;;;;;;;;19.70;99.90;;;;;;5115938;28;19924;-41
2023/09/25 13:56:19;;;;;;;;;;;19.60;99.90;;;;;;5115741;28;19947;-41
2023/09/25 13:58:44;;;;;;;;;;;19.70;99.90;;;;;;5115798;28;19982;-41
2023/09/25 14:01:10;;;;;;;;;;;19.70;99.90;;;;;;5114347;28;19924;-41
2023/09/25 14:03:35;;;;;;;;;;;19.70;99.90;;;;;;5115648;28;19924;-41
2023/09/25 14:06:01;;;;;;;;;;;19.70;99.90;;;;;;5115577;28;19953;-41
2023/09/25 14:08:27;;;;;;;;;;;19.70;99.90;;;;;;5115754;28;20014;-41
2023/09/25 14:10:52;;;;;;;;;;;19.70;99.90;;;;;;5115497;28;20010;-41